Terminal Aerodrome Forecast
Issued by NWS Albany, NY

Home | Current Version | Previous Version | Text Only | Print | Product List | Glossary On
Versions: 1 2 3 4 5 6 7 8 9 10 11 12 13 14 15 16 17 18 19 20 21 22 23 24 25 26 27 28 29 30 31 32 33 34 35 36 37
363
FTUS41 KALY 040539
TAFALB
TAF
KALB 040539Z 0406/0506 00000KT 1 1/2SM -DZ BR BKN004 OVC012
      TEMPO 0406/0409 1SM BR OVC004
     FM040900 VRB03KT 2SM -DZ BR OVC005
     FM041400 15005KT 6SM BR VCSH SCT005 OVC012
     FM042000 13006KT 3SM -SHRA BR SCT008 OVC015=

USA.gov is the U.S. government's official web portal to all federal, state and local government web resources and services.